Commerce City, CO

7:18 PM MDT on May 06, 2015 (GMT -0600)
Stapleton | | Change Station
CLOSE
Current Station
Personal Weather Station
Location: Denver, CO
Elevation: 5312 ft
Nearby Weather Stations

Elev 5312 ft 39.76 °N, 104.90 °W | Updated 5 seconds ago

Overcast
Overcast
57.9 °F
Feels Like 57.9 °F
N
0.0
Wind Variable Wind from NW
Gusts 0.0 mph

Today
High -- | Low -- °F
--% Chance of Precip.
Yesterday
High -- | Low -- °F
Precip. -- in
5:54 AM 7:58 PM
Waning Gibbous, 91% visible
Pressure 29.60 in
Visibility 10.0 miles
Clouds Scattered Clouds 3500 ft
Mostly Cloudy 6500 ft
Overcast 12000 ft
Dew Point 52 °F
Humidity 82%
Rainfall 0.00 in
Snow Depth Not available.
UV 0.0 out of 12
Pollen 4.50 out of 12
Air Quality Not available.
Flu Activity Sporadic
METAR KDEN 070053Z 17008KT 10SM -RA SCT035 BKN065 OVC120 12/09 A2973 RMK AO2 RAB00 TSB2357E21 SLP024 OCNL LTGICCG DSNT N AND W CB DSNT N AND W MOV E P0004 T01220089

More Conditions Fewer Conditions

Pressure 29.60 in
Visibility 10.0 miles
Clouds Scattered Clouds 3500 ft
Mostly Cloudy 6500 ft
Overcast 12000 ft
Dew Point 52 °F
Humidity 82%
Rainfall 0.00 in
Snow Depth Not available.
UV 0.0 out of 12
Pollen 4.50 out of 12
Air Quality Not available.
Flu Activity Sporadic
METAR KDEN 070053Z 17008KT 10SM -RA SCT035 BKN065 OVC120 12/09 A2973 RMK AO2 RAB00 TSB2357E21 SLP024 OCNL LTGICCG DSNT N AND W CB DSNT N AND W MOV E P0004 T01220089

More Conditions Fewer Conditions

Nowcast | as of 7:17 PM MDT on May 6, 2015

Numerous showers and scattered thunderstorms will continue over the foothills and the urban corridor through the evening hours. Some of the showers will produce heavy rain and wind gusts to 35 mph. Rainfall rates will be up to a half inch in less than an hour with the heavier showers. The strongest storms will be across central Weld County and also over western portions of the Denver area.

×

10-Day Weather Forecast

Almanac

Astronomy

May. 06, 2015 Rise Set
Actual Time
Civil Twilight
Nautical Twilight
Astronomical Twilight
Moon
Length of Visible Light
Length of Day
Tomorrow will be .
, % of the Moon is Illuminated

Today's Extremes

State Highs State Lows

Community

WunderPhotos

Upload Photos

1,819,056 photos uploaded!

WunderBlogs® & News

Nearby

Air Quality

  Air Quality AQ Index Pollutant
Not available.

Snow Depth

Station Depth Elevation

Earthquake Activity

City Distance Mag. Time & Date
Minimum magnitude displayed is 2.5.

Coastal Water Temperatures

Place Temperature

Stations

Nearby Weather Stations

Station Location Temp. Windchill Dew Point Humidity Wind Precip. Elev Updated Type